createdAt,value
2019-04-10T00:03:48.305Z,9.73
2019-04-10T00:08:54.723Z,11.37
2019-04-10T00:14:00.805Z,10.03
2019-04-10T00:19:07.048Z,10.40
2019-04-10T00:24:13.557Z,9.27
2019-04-10T00:29:20.314Z,17.20
2019-04-10T00:34:26.434Z,10.33
2019-04-10T00:39:32.798Z,13.07
2019-04-10T00:44:39.664Z,16.87
2019-04-10T00:49:46.152Z,19.13
2019-04-10T00:54:52.158Z,16.90
2019-04-10T00:59:58.873Z,16.67
2019-04-10T01:05:05.126Z,17.37
2019-04-10T01:10:12.213Z,13.30
2019-04-10T01:15:19.068Z,15.80
2019-04-10T01:20:25.824Z,10.73
2019-04-10T01:25:32.552Z,15.57
2019-04-10T01:30:38.563Z,15.87
2019-04-10T01:35:46.658Z,12.17
2019-04-10T01:40:53.139Z,13.57
2019-04-10T01:46:00.309Z,10.27
2019-04-10T01:51:06.727Z,12.27
2019-04-10T01:56:22.052Z,10.37
2019-04-10T02:01:22.307Z,11.43
2019-04-10T02:06:29.381Z,9.93
2019-04-10T02:11:37.611Z,9.80
2019-04-10T02:16:43.501Z,11.47
2019-04-10T02:21:49.756Z,11.50
2019-04-10T02:26:56.135Z,11.33
2019-04-10T02:32:02.268Z,9.90
2019-04-10T02:37:08.747Z,8.20
2019-04-10T02:42:16.076Z,6.83
2019-04-10T02:47:23.082Z,8.67
2019-04-10T02:52:30.695Z,9.13
2019-04-10T02:57:37.465Z,12.10
2019-04-10T03:02:45.334Z,9.13
2019-04-10T03:07:52.637Z,12.03
2019-04-10T03:12:59.317Z,9.87
2019-04-10T03:18:07.064Z,11.70
2019-04-10T03:23:13.519Z,13.37
2019-04-10T03:28:19.808Z,9.17
2019-04-10T03:33:30.512Z,10.40
2019-04-10T03:38:47.348Z,12.43
2019-04-10T03:43:43.735Z,9.87
2019-04-10T03:48:49.543Z,9.50
2019-04-10T03:53:56.472Z,8.93
2019-04-10T03:59:02.324Z,10.60
2019-04-10T04:04:09.614Z,9.47
2019-04-10T04:09:16.216Z,8.30
2019-04-10T04:14:22.414Z,7.77
2019-04-10T04:19:28.567Z,6.63
2019-04-10T04:24:35.795Z,7.30
2019-04-10T04:29:41.498Z,6.37
2019-04-10T04:34:47.514Z,9.30
2019-04-10T04:39:54.316Z,7.03
2019-04-10T04:45:00.793Z,7.47
2019-04-10T04:50:07.702Z,7.67
2019-04-10T04:55:14.217Z,8.37
2019-04-10T05:00:20.248Z,7.70
2019-04-10T05:05:27.139Z,6.63
2019-04-10T05:10:33.529Z,5.67
2019-04-10T05:15:39.491Z,6.83
2019-04-10T05:20:49.958Z,7.07
2019-04-10T05:25:53.863Z,8.53
2019-04-10T05:31:00.916Z,6.63
2019-04-10T05:36:07.011Z,6.97
2019-04-10T05:41:13.376Z,4.90
2019-04-10T05:46:19.380Z,7.87
2019-04-10T05:51:25.425Z,6.93
2019-04-10T05:56:31.335Z,5.47
2019-04-10T06:01:40.212Z,7.33
2019-04-10T06:06:44.962Z,5.60
2019-04-10T06:11:50.770Z,9.67
2019-04-10T06:16:59.396Z,8.57
2019-04-10T06:22:05.334Z,5.60
2019-04-10T06:27:12.291Z,3.63
2019-04-10T06:32:19.282Z,4.27
2019-04-10T06:37:26.286Z,5.33
2019-04-10T06:42:44.845Z,4.97
2019-04-10T06:47:40.416Z,7.13
2019-04-10T06:52:47.162Z,4.10
2019-04-10T06:57:57.204Z,5.87
2019-04-10T07:03:01.052Z,7.10
2019-04-10T07:08:16.038Z,4.40
2019-04-10T07:13:17.542Z,5.53
2019-04-10T07:18:24.238Z,5.93
2019-04-10T07:23:31.997Z,6.13
2019-04-10T07:28:41.670Z,4.90
2019-04-10T07:33:50.132Z,7.13
2019-04-10T07:38:55.711Z,9.97
2019-04-10T07:44:01.646Z,6.07
2019-04-10T07:49:08.554Z,4.37
2019-04-10T07:54:18.315Z,7.00
2019-04-10T07:59:21.767Z,5.63
2019-04-10T08:04:27.658Z,3.43
2019-04-10T08:09:33.541Z,5.23
2019-04-10T08:14:39.921Z,4.63
2019-04-10T08:19:46.180Z,5.20
2019-04-10T08:24:51.970Z,5.17
2019-04-10T08:29:59.013Z,4.67
2019-04-10T08:35:06.978Z,7.50
2019-04-10T08:40:13.572Z,8.00
2019-04-10T08:45:20.903Z,6.00
2019-04-10T08:50:28.015Z,7.23
2019-04-10T08:55:34.980Z,6.43
2019-04-10T09:00:40.944Z,6.03
2019-04-10T09:05:46.989Z,5.60
2019-04-10T09:10:53.098Z,7.00
2019-04-10T09:15:58.890Z,6.70
2019-04-10T09:21:05.020Z,7.30
2019-04-10T09:26:11.398Z,4.90
2019-04-10T09:31:19.715Z,5.37
2019-04-10T09:36:26.982Z,5.43
2019-04-10T09:41:34.109Z,6.10
2019-04-10T09:46:40.810Z,6.97
2019-04-10T09:51:48.181Z,8.13
2019-04-10T09:56:54.868Z,5.63
2019-04-10T10:02:00.912Z,6.50
2019-04-10T10:07:08.252Z,8.80
2019-04-10T10:12:14.094Z,7.63
2019-04-10T10:17:20.312Z,6.33
2019-04-10T10:22:27.293Z,5.77
2019-04-10T10:27:34.263Z,7.70
2019-04-10T10:32:42.121Z,7.03
2019-04-10T10:37:48.502Z,7.07
2019-04-10T10:42:54.478Z,8.53
2019-04-10T10:48:01.285Z,8.40
2019-04-10T10:53:08.103Z,6.27
2019-04-10T10:58:14.018Z,9.30
2019-04-10T11:03:20.414Z,6.03
2019-04-10T11:08:26.959Z,6.83
2019-04-10T11:13:33.215Z,4.10
2019-04-10T11:18:40.380Z,5.27
2019-04-10T11:23:46.867Z,4.97
2019-04-10T11:28:53.096Z,3.50
2019-04-10T11:34:00.099Z,4.50
2019-04-10T11:39:17.093Z,4.80
2019-04-10T11:44:19.213Z,3.53
2019-04-10T11:49:23.850Z,4.03
2019-04-10T11:54:32.247Z,4.40
2019-04-10T11:59:38.967Z,5.73
2019-04-10T12:04:53.001Z,4.43
2019-04-10T12:15:02.037Z,4.13
2019-04-10T12:20:11.117Z,4.40
2019-04-10T12:25:17.116Z,6.20
2019-04-10T12:30:23.530Z,6.37
2019-04-10T12:35:29.810Z,5.70
2019-04-10T12:40:38.690Z,5.40
2019-04-10T12:45:44.405Z,4.57
2019-04-10T12:50:50.460Z,4.57
2019-04-10T12:55:56.474Z,4.97
2019-04-10T13:01:03.056Z,7.17
2019-04-10T13:06:09.546Z,4.87
2019-04-10T13:11:16.261Z,4.23
2019-04-10T13:16:22.202Z,5.23
2019-04-10T13:21:28.510Z,5.93
2019-04-10T13:26:34.585Z,4.60
2019-04-10T13:31:40.645Z,8.03
2019-04-10T13:36:46.614Z,4.87
2019-04-10T13:41:52.608Z,4.73
2019-04-10T13:46:59.445Z,5.03
2019-04-10T13:52:05.811Z,5.30
2019-04-10T13:57:11.917Z,3.43
2019-04-10T14:02:32.250Z,5.63
2019-04-10T14:07:40.156Z,6.07
2019-04-10T14:12:47.146Z,5.30
2019-04-10T14:17:55.766Z,4.50
2019-04-10T14:23:15.747Z,4.63
2019-04-10T14:28:23.173Z,4.40
2019-04-10T14:33:30.400Z,5.07
2019-04-10T14:38:36.452Z,4.87
2019-04-10T14:43:43.818Z,5.47
2019-04-10T14:48:50.180Z,4.77
2019-04-10T14:53:56.054Z,5.93
2019-04-10T14:59:02.132Z,3.73
2019-04-10T15:04:08.829Z,3.43
2019-04-10T15:09:25.314Z,5.47
2019-04-10T15:14:27.818Z,3.83
2019-04-10T15:19:34.347Z,3.23
2019-04-10T15:24:40.359Z,3.70
2019-04-10T15:29:47.206Z,5.67
2019-04-10T15:34:53.685Z,4.10
2019-04-10T15:40:13.487Z,3.60
2019-04-10T15:45:07.345Z,3.20
2019-04-10T15:50:13.859Z,4.60
2019-04-10T15:55:19.818Z,3.53
2019-04-10T16:00:25.813Z,6.03
2019-04-10T16:05:33.373Z,4.87
2019-04-10T16:10:41.347Z,3.83
2019-04-10T16:15:50.477Z,4.87
2019-04-10T16:20:57.263Z,4.90
2019-04-10T16:26:04.846Z,6.37
2019-04-10T16:31:11.003Z,5.00
2019-04-10T16:36:17.199Z,7.00
2019-04-10T16:41:26.327Z,6.50
2019-04-10T16:46:31.990Z,6.80
2019-04-10T16:51:38.531Z,4.83
2019-04-10T16:56:45.617Z,6.93
2019-04-10T17:01:53.209Z,6.13
2019-04-10T17:06:59.175Z,5.37
2019-04-10T17:12:06.579Z,6.17
2019-04-10T17:17:13.013Z,6.50
2019-04-10T17:22:30.760Z,6.53
2019-04-10T17:27:27.526Z,7.67
2019-04-10T17:32:36.317Z,7.60
2019-04-10T17:37:42.739Z,8.23
2019-04-10T17:42:48.655Z,7.20
2019-04-10T17:47:55.258Z,5.23
2019-04-10T17:53:02.818Z,4.53
2019-04-10T17:58:09.457Z,4.73
2019-04-10T18:03:18.365Z,7.77
2019-04-10T18:08:26.411Z,8.57
2019-04-10T18:13:31.141Z,6.63
2019-04-10T18:18:37.981Z,7.77
2019-04-10T18:23:43.997Z,5.97
2019-04-10T18:28:52.024Z,7.57
2019-04-10T18:34:00.739Z,8.37
2019-04-10T18:39:12.486Z,6.43
2019-04-10T18:44:17.385Z,7.67
2019-04-10T18:49:23.246Z,7.10
2019-04-10T18:54:40.211Z,8.00
2019-04-10T18:59:47.647Z,8.60
2019-04-10T19:04:55.287Z,8.03
2019-04-10T19:10:02.179Z,9.10
2019-04-10T19:15:09.209Z,9.80
2019-04-10T19:20:17.986Z,8.03
2019-04-10T19:25:24.898Z,11.87
2019-04-10T19:30:45.685Z,9.23
2019-04-10T19:35:51.637Z,10.77
2019-04-10T19:40:58.434Z,8.73
2019-04-10T19:46:04.400Z,10.27
2019-04-10T19:51:10.374Z,8.77
2019-04-10T19:56:16.313Z,9.80
2019-04-10T20:01:24.514Z,12.80
2019-04-10T20:06:30.170Z,10.83
2019-04-10T20:11:40.316Z,13.67
2019-04-10T20:16:44.031Z,12.50
2019-04-10T20:21:50.369Z,12.50
2019-04-10T20:26:56.479Z,12.47
2019-04-10T20:32:02.721Z,13.53
2019-04-10T20:37:11.310Z,8.90
2019-04-10T20:42:18.215Z,9.17
2019-04-10T20:47:24.677Z,7.93
2019-04-10T20:52:30.775Z,10.07
2019-04-10T20:57:37.486Z,7.93
2019-04-10T21:02:44.562Z,8.53
2019-04-10T21:07:50.629Z,7.13
2019-04-10T21:12:58.418Z,11.40
2019-04-10T21:18:05.102Z,7.47
2019-04-10T21:23:11.072Z,6.83
2019-04-10T21:28:16.878Z,4.77
2019-04-10T21:33:37.310Z,7.43
2019-04-10T21:38:43.166Z,10.10
2019-04-10T21:43:50.876Z,6.60
2019-04-10T21:48:57.357Z,7.17
2019-04-10T21:54:04.361Z,9.50
2019-04-10T21:59:11.096Z,8.90
2019-04-10T22:04:17.435Z,8.83
2019-04-10T22:09:24.757Z,7.20
2019-04-10T22:14:30.622Z,7.70
2019-04-10T22:19:38.015Z,6.77
2019-04-10T22:24:44.095Z,6.73
2019-04-10T22:29:50.069Z,6.80
2019-04-10T22:34:57.017Z,6.00
2019-04-10T22:40:02.859Z,7.60
2019-04-10T22:45:27.399Z,6.40
2019-04-10T22:50:34.509Z,11.00
2019-04-10T22:55:42.323Z,10.50
2019-04-10T23:00:48.490Z,8.80
2019-04-10T23:05:54.553Z,15.97
2019-04-10T23:11:01.385Z,12.37
2019-04-10T23:16:08.993Z,11.50
2019-04-10T23:21:14.884Z,12.90
2019-04-10T23:26:20.790Z,14.83
2019-04-10T23:31:27.887Z,11.63
2019-04-10T23:36:34.085Z,18.47
2019-04-10T23:41:40.055Z,13.27
2019-04-10T23:46:47.459Z,21.47
2019-04-10T23:51:53.685Z,12.43
2019-04-10T23:56:59.706Z,17.50
